logo
Search for airport 
image banner adimage banner adimage banner ad
image banner ad

LKBORI - Boritov

Located in Boritov, Czech Republic

ICAO - , IATA -

Data provided by Airmate  

General information

Coordinates: N49°26'10" E16°35'39"
Elevation is 1247 feet MSL.
Magnetic variation is 0° East
View others Airports in South Moravian Region

Operational data

Special qualification required
Current time UTC:
Current local time:
Weather at : LKTB - Brno/Turany ( 32 km )
METAR: LKTB 171800Z 01006KT CAVOK 08/00 Q1007 NOSIG
TAF: TAF LKTB 171100Z 1712/1812 31008KT 9999 BKN040 TEMPO 1712/1719 36012KT 7000 -SHRA BKN025TCU TEMPO 1809/1812 7000 -SHRA BKN020TCU
View NOTAMs / SUP AIP / TFR affecting this airport [VIEW]
Communications frequencies: [VIEW]

Runways:

RWY identifierQFULength (ft)Width (ft)SurfaceLDA (ft)
0220°278966GRASS2789
20200°278966GRASS2789

Airport contact information

Address: Boritov Czech Republic

Satellite view of LKBORI